| time (UTC) | temp F | wind direction | speed knots | gust knots | rain 1hr in | rain 24hr in | rain mn in | humidity % | barometer mb |
| 20260510163706 | 74 | 243 | 2.6 | 6.1 | 0.00 | 0.03 | 0.00 | 56 | 1012.3 |
| 20260510162206 | 74 | 0 | 0.0 | 5.2 | 0.00 | 0.03 | 0.00 | 60 | 1012.4 |
| 20260510160705 | 72 | 256 | 1.7 | 5.2 | 0.00 | 0.03 | 0.00 | 60 | 1012.5 |
| 20260510155206 | 72 | 287 | 0.9 | 6.1 | 0.00 | 0.04 | 0.00 | 64 | 1012.4 |
| 20260510153706 | 72 | 0 | 0.0 | 3.5 | 0.00 | 0.04 | 0.00 | 65 | 1012.5 |
| 20260510152205 | 71 | 270 | 1.7 | 6.1 | 0.00 | 0.04 | 0.00 | 64 | 1012.5 |
| 20260510150706 | 70 | 277 | 1.7 | 8.7 | 0.00 | 0.04 | 0.00 | 65 | 1012.5 |
| 20260510145206 | 69 | 285 | 2.6 | 6.1 | 0.00 | 0.04 | 0.00 | 66 | 1012.4 |
| 20260510143705 | 68 | 215 | 0.9 | 7.8 | 0.00 | 0.04 | 0.00 | 67 | 1012.6 |
| 20260510142206 | 67 | 188 | 3.5 | 7.8 | 0.00 | 0.04 | 0.00 | 73 | 1012.7 |
| 20260510140706 | 65 | 0 | 0.0 | 3.5 | 0.00 | 0.04 | 0.00 | 76 | 1012.7 |
| 20260510135205 | 63 | 0 | 0.0 | 0.9 | 0.00 | 0.04 | 0.00 | 80 | 1012.7 |
| 20260510133705 | 62 | 0 | 0.0 | 3.5 | 0.00 | 0.04 | 0.00 | 85 | 1012.7 |
| 20260510132206 | 59 | 0 | 0.0 | 0.0 | 0.00 | 0.04 | 0.00 | 89 | 1012.7 |
| 20260510130706 | 57 | 0 | 0.0 | 0.0 | 0.00 | 0.04 | 0.00 | 90 | 1012.9 |
| 20260510125205 | 55 | 0 | 0.0 | 0.0 | 0.00 | 0.04 | 0.00 | 90 | 1013.0 |
| 20260510123706 | 55 | 0 | 0.0 | 0.0 | 0.00 | 0.04 | 0.00 | 90 | 1012.9 |
| 20260510122206 | 54 | 0 | 0.0 | 0.0 | 0.00 | 0.04 | 0.00 | 90 | 1012.7 |
| 20260510120705 | 53 | 0 | 0.0 | 0.0 | 0.00 | 0.04 | 0.00 | 89 | 1012.4 |
| 20260510115205 | 54 | 0 | 0.0 | 0.0 | 0.00 | 0.04 | 0.00 | 90 | 1012.2 |
| 20260510113706 | 52 | 0 | 0.0 | 0.0 | 0.00 | 0.04 | 0.00 | 90 | 1012.0 |
| 20260510112206 | 52 | 0 | 0.0 | 0.0 | 0.00 | 0.04 | 0.00 | 90 | 1011.8 |
| 20260510110705 | 51 | 0 | 0.0 | 0.0 | 0.00 | 0.04 | 0.00 | 89 | 1011.9 |
| 20260510105205 | 51 | 0 | 0.0 | 0.0 | 0.00 | 0.04 | 0.00 | 89 | 1011.8 |
| 20260510103706 | 50 | 0 | 0.0 | 0.0 | 0.00 | 0.04 | 0.00 | 89 | 1011.5 |
| 20260510102205 | 50 | 0 | 0.0 | 0.0 | 0.00 | 0.04 | 0.00 | 89 | 1011.4 |
| 20260510100705 | 50 | 0 | 0.0 | 0.0 | 0.00 | 0.04 | 0.00 | 89 | 1011.2 |
| 20260510095206 | 50 | 0 | 0.0 | 0.0 | 0.00 | 0.04 | 0.00 | 89 | 1011.2 |
| 20260510093706 | 50 | 0 | 0.0 | 0.0 | 0.00 | 0.04 | 0.00 | 89 | 1011.2 |
| 20260510092205 | 49 | 0 | 0.0 | 0.0 | 0.00 | 0.04 | 0.00 | 89 | 1010.9 |
| 20260510090705 | 49 | 0 | 0.0 | 0.0 | 0.00 | 0.04 | 0.00 | 89 | 1011.0 |
| 20260510085206 | 49 | 0 | 0.0 | 0.0 | 0.00 | 0.04 | 0.00 | 89 | 1011.1 |
| 20260510083705 | 48 | 0 | 0.0 | 7.8 | 0.00 | 0.04 | 0.00 | 89 | 1011.0 |
| 20260510082205 | 47 | 349 | 4.3 | 8.7 | 0.00 | 0.04 | 0.00 | 88 | 1011.1 |
| 20260510080706 | 47 | 0 | 0.0 | 0.0 | 0.00 | 0.04 | 0.00 | 88 | 1010.5 |
| 20260510075205 | 47 | 0 | 0.0 | 0.0 | 0.00 | 0.04 | 0.00 | 88 | 1010.5 |
| 20260510073705 | 48 | 0 | 0.0 | 0.0 | 0.00 | 0.04 | 0.00 | 88 | 1010.4 |
| 20260510072206 | 49 | 0 | 0.0 | 0.0 | 0.00 | 0.04 | 0.00 | 88 | 1010.2 |
| 20260510070705 | 49 | 0 | 0.0 | 0.0 | 0.00 | 0.04 | 0.00 | 88 | 1010.0 |
| 20260510065205 | 49 | 0 | 0.0 | 0.0 | 0.00 | 0.04 | 0.00 | 88 | 1010.0 |
| 20260510063706 | 48 | 0 | 0.0 | 0.0 | 0.00 | 0.04 | 0.00 | 87 | 1009.8 |
| 20260510062205 | 49 | 0 | 0.0 | 0.0 | 0.00 | 0.04 | 0.00 | 87 | 1010.0 |
| 20260510060705 | 49 | 0 | 0.0 | 0.0 | 0.00 | 0.04 | 0.00 | 88 | 1010.0 |
| 20260510055206 | 49 | 0 | 0.0 | 0.0 | 0.00 | 0.04 | 0.00 | 88 | 1010.0 |
| 20260510053705 | 49 | 0 | 0.0 | 0.0 | 0.00 | 0.04 | 0.00 | 88 | 1010.1 |
| 20260510052205 | 49 | 0 | 0.0 | 0.0 | 0.00 | 0.04 | 0.00 | 87 | 1010.3 |
| 20260510050705 | 49 | 0 | 0.0 | 0.0 | 0.00 | 0.04 | 0.00 | 87 | 1010.4 |
| 20260510045205 | 49 | 0 | 0.0 | 0.0 | 0.00 | 0.04 | 0.00 | 87 | 1010.4 |
| 20260510043705 | 49 | 0 | 0.0 | 0.0 | 0.00 | 0.04 | 0.00 | 87 | 1010.5 |
| 20260510042205 | 50 | 0 | 0.0 | 0.0 | 0.00 | 0.04 | 0.00 | 86 | 1010.5 |
| 20260510040705 | 50 | 0 | 0.0 | 0.0 | 0.00 | 0.04 | 0.00 | 86 | 1010.6 |
| 20260510035205 | 51 | 0 | 0.0 | 0.0 | 0.00 | 0.04 | 0.04 | 86 | 1010.6 |
| 20260510033705 | 51 | 0 | 0.0 | 0.0 | 0.00 | 0.04 | 0.04 | 87 | 1010.5 |
| 20260510032205 | 51 | 0 | 0.0 | 0.0 | 0.00 | 0.04 | 0.04 | 86 | 1010.4 |
| 20260510030705 | 52 | 0 | 0.0 | 0.0 | 0.00 | 0.04 | 0.04 | 86 | 1010.2 |
| 20260510025205 | 52 | 0 | 0.0 | 0.0 | 0.00 | 0.04 | 0.04 | 86 | 1010.0 |
| 20260510023705 | 52 | 0 | 0.0 | 0.0 | 0.00 | 0.04 | 0.04 | 86 | 1010.0 |
| 20260510022205 | 52 | 0 | 0.0 | 0.0 | 0.00 | 0.04 | 0.04 | 85 | 1010.1 |
| 20260510020705 | 52 | 0 | 0.0 | 0.0 | 0.00 | 0.04 | 0.04 | 85 | 1010.0 |
| 20260510015205 | 52 | 0 | 0.0 | 0.0 | 0.00 | 0.04 | 0.04 | 84 | 1009.9 |
| 20260510013705 | 53 | 0 | 0.0 | 0.0 | 0.00 | 0.04 | 0.04 | 84 | 1009.8 |
| 20260510012205 | 53 | 0 | 0.0 | 0.0 | 0.00 | 0.04 | 0.04 | 84 | 1009.8 |
| 20260510010705 | 54 | 0 | 0.0 | 0.0 | 0.00 | 0.04 | 0.04 | 83 | 1009.5 |
| 20260510005205 | 54 | 0 | 0.0 | 0.0 | 0.00 | 0.04 | 0.04 | 83 | 1009.5 |
| 20260510003704 | 54 | 0 | 0.0 | 0.0 | 0.00 | 0.04 | 0.04 | 82 | 1009.5 |
| 20260510002205 | 55 | 0 | 0.0 | 0.0 | 0.00 | 0.04 | 0.04 | 81 | 1009.2 |
| 20260510000705 | 57 | 0 | 0.0 | 0.0 | 0.00 | 0.04 | 0.04 | 80 | 1009.4 |
| 20260509235205 | 58 | 0 | 0.0 | 0.0 | 0.00 | 0.04 | 0.04 | 77 | 1009.3 |
| 20260509233705 | 59 | 0 | 0.0 | 0.0 | 0.00 | 0.04 | 0.04 | 77 | 1009.4 |
| 20260509232205 | 59 | 0 | 0.0 | 0.0 | 0.00 | 0.04 | 0.04 | 77 | 1009.4 |
| 20260509230705 | 60 | 0 | 0.0 | 0.0 | 0.00 | 0.04 | 0.04 | 75 | 1009.3 |
| 20260509225205 | 61 | 0 | 0.0 | 0.0 | 0.00 | 0.04 | 0.04 | 76 | 1009.2 |
| 20260509223705 | 60 | 0 | 0.0 | 0.0 | 0.00 | 0.04 | 0.04 | 78 | 1009.3 |
| 20260509222205 | 58 | 0 | 0.0 | 3.5 | 0.00 | 0.04 | 0.04 | 82 | 1009.5 |
| 20260509220705 | 57 | 0 | 0.0 | 0.0 | 0.00 | 0.04 | 0.04 | 83 | 1009.5 |
| 20260509215205 | 57 | 0 | 0.0 | 0.0 | 0.00 | 0.04 | 0.04 | 83 | 1009.4 |
| 20260509213705 | 57 | 0 | 0.0 | 2.6 | 0.00 | 0.04 | 0.04 | 83 | 1009.6 |
| 20260509212205 | 57 | 0 | 0.0 | 2.6 | 0.00 | 0.04 | 0.04 | 83 | 1009.5 |
| 20260509210705 | 57 | 0 | 0.0 | 2.6 | 0.00 | 0.04 | 0.04 | 83 | 1009.5 |
| 20260509205205 | 58 | 0 | 0.0 | 0.0 | 0.00 | 0.04 | 0.04 | 82 | 1009.5 |
| 20260509203705 | 58 | 0 | 0.0 | 0.0 | 0.00 | 0.04 | 0.04 | 81 | 1009.5 |
| 20260509200705 | 58 | 0 | 0.0 | 4.3 | 0.01 | 0.04 | 0.04 | 83 | 1009.5 |
| 20260509195205 | 57 | 349 | 1.7 | 5.2 | 0.01 | 0.04 | 0.04 | 84 | 1009.5 |
| 20260509193705 | 56 | 0 | 0.0 | 4.3 | 0.01 | 0.04 | 0.04 | 85 | 1009.7 |
| 20260509192205 | 56 | 0 | 0.0 | 0.9 | 0.01 | 0.04 | 0.04 | 85 | 1010.0 |
| 20260509190704 | 56 | 0 | 0.0 | 5.2 | 0.01 | 0.03 | 0.03 | 84 | 1010.2 |
| 20260509185205 | 56 | 349 | 3.5 | 7.0 | 0.01 | 0.03 | 0.03 | 83 | 1010.5 |
| 20260509183705 | 56 | 0 | 0.0 | 6.1 | 0.02 | 0.03 | 0.03 | 83 | 1010.6 |
| 20260509182204 | 56 | 0 | 0.0 | 2.6 | 0.02 | 0.03 | 0.03 | 82 | 1010.6 |
| 20260509180705 | 57 | 349 | 1.7 | 3.5 | 0.01 | 0.02 | 0.02 | 79 | 1010.9 |
| 20260509175205 | 58 | 0 | 0.0 | 2.6 | 0.01 | 0.02 | 0.02 | 78 | 1010.9 |
| 20260509173705 | 58 | 288 | 0.9 | 6.1 | 0.00 | 0.01 | 0.01 | 76 | 1010.9 |
| 20260509172205 | 59 | 254 | 0.9 | 6.1 | 0.00 | 0.01 | 0.01 | 74 | 1010.7 |
| 20260509170705 | 59 | 254 | 2.6 | 5.2 | 0.00 | 0.01 | 0.01 | 76 | 1010.5 |
| 20260509165205 | 59 | 249 | 2.6 | 6.1 | 0.01 | 0.01 | 0.01 | 75 | 1010.7 |